• Join FlightAware (Why Join?)
  • Login
  • US Flag 
03:18PM EDT


 

Airport Tracker/Info


-or-


 

Live Flight TrackerFlight Track Log ✈ UAL4236 ✈ 18-Apr-2013 ✈ KELP - KIAH

Flight Track Log - Related Links

Times and Time Zones

All times are in EDT time to prevent confusion due to time zone crossing. See the UAL4236 flight status page for this flight to view local times or setup timezone preferences in your user account.

Time Position Orientation Groundspeed Altitude Reporting Facility
EDT Latitude Longitude Course Direction KTS MPH feet Rate Location/Type
12:51PM 31.7586 -106.4083 189° South 199 229 5,800  Level Albuquerque Center
12:52PM 31.7053 -106.3347 130° Southeast 251 289 7,800 1,800 Climbing Albuquerque Center
12:53PM 31.6814 -106.2506 108° East 273 314 9,600 1,620 Climbing Albuquerque Center
12:54PM 31.7370 -105.8019 106° East  Level Estimated
12:54PM 31.6603 -106.1569 105° East 296 341 11,200  Level Albuquerque Center
12:55PM 31.7191 -105.6585 103° East  Level Estimated
12:55PM 31.6386 -106.0553 104° East 313 360 13,200  Level Albuquerque Center
12:56PM 31.6161 -105.9531 104° East 332 382 14,400 1,080 Climbing Albuquerque Center
12:57PM 31.5914 -105.8375 104° East 364 419 15,500 1,140 Climbing Albuquerque Center
12:58PM 31.5592 -105.6883 104° East 393 452 16,800 1,080 Climbing Albuquerque Center
12:59PM 31.5328 -105.5567 103° East 412 474 17,800 960 Climbing Albuquerque Center
01:00PM 31.5042 -105.4242 104° East 419 482 18,900 960 Climbing Albuquerque Center
01:01PM 31.4750 -105.2867 104° East 430 495 19,900 960 Climbing Albuquerque Center
01:03PM 31.4442 -105.1458 104° East 440 506 21,000 1,020 Climbing Albuquerque Center
01:04PM 31.4136 -105.0033 104° East 447 514 22,100 960 Climbing Albuquerque Center
01:05PM 31.3817 -104.8572 104° East 454 522 23,100 960 Climbing Albuquerque Center
01:06PM 31.3494 -104.7103 104° East 459 528 24,200 1,140 Climbing Albuquerque Center
01:07PM 31.3108 -104.5328 104° East 463 533 25,500 1,140 Climbing Albuquerque Center
01:08PM 31.2775 -104.3853 105° East 466 536 26,600 960 Climbing Albuquerque Center
01:09PM 31.2447 -104.2381 105° East 467 537 27,600 960 Climbing Albuquerque Center
01:10PM 31.2122 -104.0914 104° East 466 536 28,700 960 Climbing Albuquerque Center
01:11PM 31.1772 -103.9425 105° East 471 542 29,700 1,080 Climbing Albuquerque Center
01:12PM 31.1364 -103.7692 105° East 472 543 31,000 1,020 Climbing Albuquerque Center
01:13PM 31.1022 -103.6200 105° East 474 545 31,900 840 Climbing Albuquerque Center
01:14PM 31.0667 -103.4686 105° East 481 554 32,800 840 Climbing Albuquerque Center
01:15PM 31.0308 -103.3186 106° East 482 555 33,700 780 Climbing Albuquerque Center
01:16PM 30.9944 -103.1658 105° East 487 560 34,500 600 Climbing Albuquerque Center
01:17PM 30.9522 -102.9819 105° East 491 565 35,000 240 Climbing Albuquerque Center
01:18PM 30.9097 -102.8242 107° East 506 582 35,000  Level Albuquerque Center
01:19PM 30.8650 -102.6572 107° East 532 612 35,000  Level Albuquerque Center
01:20PM 30.8186 -102.4881 108° East 547 629 35,000  Level Albuquerque Center
01:21PM 30.7722 -102.3189 108° East 554 638 35,000 60 Level Albuquerque Center
01:22PM 30.7169 -102.1186 108° East 552 635 35,200 720 Climbing Albuquerque Center
01:23PM 30.6717 -101.9542 108° East 547 629 36,600 840 Climbing Albuquerque Center
01:24PM 30.6283 -101.7972 108° East 531 611 37,000 180 Climbing Albuquerque Center
01:25PM 30.5908 -101.6711 109° East 521 600 37,000 -60 Level Houston Center
01:26PM 30.5497 -101.5183 107° East 532 612 36,900  Descending Houston Center
01:27PM 30.5033 -101.3539 108° East 537 618 37,000  Climbing Houston Center
01:28PM 30.4564 -101.1922 109° East 532 612 37,000  Level Houston Center
01:29PM 30.4000 -100.9969 108° East 534 615 37,000  Level Houston Center
01:30PM 30.3550 -100.8364 108° East 526 605 37,000  Level Houston Center
01:31PM 30.3092 -100.6747 108° East 528 608 37,000 -120 Level Houston Center
01:32PM 30.2628 -100.5142 108° East 526 605 36,800 -480 Descending Houston Center
01:33PM 30.2169 -100.3553 108° East 520 598 36,100 -720 Descending Houston Center
01:34PM 30.1675 -100.1892 109° East 532 612 35,400 -540 Descending Houston Center
01:35PM 30.1186 -100.0189 108° East 548 631 35,000 -240 Descending Houston Center
01:36PM 30.0686 -99.8569 110° East 534 615 35,000  Level Houston Center
01:37PM 30.0106 -99.6611 109° East 538 619 35,000  Level Houston Center
01:38PM 29.9617 -99.4969 109° East 541 623 35,000  Level Houston Center
01:39PM 29.9131 -99.3367 109° East 532 612 35,000  Level Houston Center
01:40PM 29.8650 -99.1758 109° East 532 612 35,000  Level Houston Center
01:42PM 29.8056 -98.9869 110° East 533 613 35,000  Level Houston Center
01:43PM 29.7711 -98.8231 104° East 534 615 35,000  Level Houston Center
01:44PM 29.7589 -98.6378 94° East 540 621 35,000  Level Houston Center
01:45PM 29.7478 -98.4733 94° East 545 627 35,000  Level Houston Center
01:46PM 29.7353 -98.2881 94° East 547 629 35,000  Level Houston Center
01:47PM 29.7217 -98.1011 95° East 545 627 35,000  Level Houston Center
01:48PM 29.7081 -97.9300 95° East 539 620 35,000 -360 Level Houston Center
01:49PM 29.6961 -97.7467 94° East 543 625 34,300 -960 Descending Houston Center
01:50PM 29.6797 -97.5772 96° East 535 616 33,000 -1,560 Descending Houston Center
01:51PM 29.6647 -97.4067 96° East 536 617 31,100 -1,980 Descending Houston Center
01:52PM 29.6486 -97.2375 96° East 533 613 29,000 -2,340 Descending Houston Center
01:53PM 29.6328 -97.0650 96° East 536 617 26,300 -2,400 Descending Houston Center
01:54PM 29.6164 -96.8925 96° East 538 619 24,100 -2,640 Descending Houston Center
01:55PM 29.6017 -96.7347 96° East 498 573 20,900 -2,880 Descending Houston Center
01:56PM 29.5869 -96.5875 97° East 462 532 18,200 -2,580 Descending Houston Center
01:57PM 29.5697 -96.4200 97° East 439 505 15,600 -2,460 Descending Houston Center
01:58PM 29.5567 -96.2919 97° East 407 468 13,100 -1,800 Descending Houston Center
01:59PM 29.5478 -96.1750 95° East 371 427 12,000 -720 Descending Houston Center
02:00PM 29.5653 -96.1261 68° East 352 405 12,100  Climbing Houston Center
02:00PM 29.5933 -96.0711 60° Northeast 366 421 12,000 -540 Descending Houston Center
02:01PM 29.6192 -96.0214 59° Northeast 342 394 11,600 -1,260 Descending Houston Center
02:01PM 29.6472 -95.9658 60° Northeast 339 390 10,700 -1,500 Descending Houston Center
02:02PM 29.6639 -95.9322 60° Northeast 314 361 10,100 -1,500 Descending Houston Center
02:02PM 29.6903 -95.8811 59° Northeast 312 359 9,200 -1,440 Descending Houston Center
02:03PM 29.7033 -95.8556 60° Northeast 306 352 8,800 -1,440 Descending Houston Center
02:03PM 29.7325 -95.7961 61° Northeast 305 351 7,700 -1,380 Descending Houston Center
02:04PM 29.7744 -95.7122 60° Northeast 304 350 6,400 -720 Descending Houston Center
02:06PM 29.8317 -95.6000 60° Northeast 302 348 6,100 -240 Descending Houston Center
02:06PM 29.8572 -95.5478 61° Northeast 297 342 6,000 -120 Descending Houston Center
02:07PM 29.8950 -95.4631 63° Northeast 296 341 5,900  Descending Houston Center
02:08PM 29.8958 -95.3633 89° East 259 298 6,000 60 Climbing Houston Center
02:09PM 29.8964 -95.2822 90° East 253 291 6,100  Climbing Houston Center
02:11PM 29.8967 -95.1997 90° East 256 295 6,000 -420 Descending Houston Center
02:12PM 29.8969 -95.1178 90° East 254 292 5,300 -900 Descending Houston Center
02:13PM 29.8975 -95.0347 90° East 257 296 4,200 -660 Descending Houston Center
02:14PM 29.9442 -94.9786 46° Northeast 250 288 4,000 -120 Descending Houston Center
02:15PM 29.9897 -95.0289 316° Northwest 220 253 4,000  Level Houston Center
02:16PM 29.9928 -95.0889 273° West 190 219 4,000 -540 Level Houston Center
02:17PM 29.9928 -95.1564 270° West 205 236 3,000 -1,020 Descending Houston Center
02:18PM 29.9942 -95.2167 272° West 199 229 2,100 -1,020 Descending Houston Center